Time;durP1;ratioP1;P1;durP2;ratioP2;P2;SDS_P1;SDS_P2;PMS_P1;PMS_P2;Temp;Humidity;BMP_temperature;BMP_pressure;BME280_temperature;BME280_humidity;BME280_pressure;Samples;Min_cycle;Max_cycle;Signal;HPM_P1;HPM_P2
2022/07/16 00:02:07;;;;;;;2.45;1.65;;;9.00;99.90;;;;;;5054485;28;20193;-77
2022/07/16 00:04:37;;;;;;;1.65;1.30;;;9.10;99.90;;;;;;5054176;28;20189;-77
2022/07/16 00:07:08;;;;;;;1.73;1.45;;;9.10;99.90;;;;;;5047846;28;20195;-76
2022/07/16 00:09:39;;;;;;;2.45;1.60;;;9.10;99.90;;;;;;5034099;28;20224;-78
2022/07/16 00:12:10;;;;;;;2.10;1.60;;;9.20;99.90;;;;;;5033372;28;20716;-76
2022/07/16 00:14:42;;;;;;;1.90;1.40;;;9.20;99.90;;;;;;5033974;28;20195;-77
2022/07/16 00:17:13;;;;;;;1.67;1.40;;;9.20;99.90;;;;;;5034173;28;20240;-77
2022/07/16 00:19:42;;;;;;;2.70;1.50;;;9.40;99.90;;;;;;5043130;28;20225;-76
2022/07/16 00:22:16;;;;;;;2.65;1.60;;;9.60;99.90;;;;;;5053817;28;20206;-77
2022/07/16 00:24:46;;;;;;;2.10;1.45;;;9.70;99.90;;;;;;5049408;28;20665;-77
2022/07/16 00:27:17;;;;;;;3.05;1.30;;;9.90;99.90;;;;;;5033848;28;20193;-77
2022/07/16 00:29:50;;;;;;;3.88;1.50;;;10.00;99.90;;;;;;5034197;28;20638;-77
2022/07/16 00:32:21;;;;;;;3.60;1.60;;;10.10;99.90;;;;;;5038791;28;20296;-76
2022/07/16 00:34:54;;;;;;;2.17;1.48;;;10.20;99.90;;;;;;5053395;28;20236;-77
2022/07/16 00:37:24;;;;;;;2.63;1.40;;;10.30;99.90;;;;;;5045965;28;20190;-76
2022/07/16 00:39:55;;;;;;;3.40;1.33;;;10.40;99.90;;;;;;5057488;28;20201;-76
2022/07/16 00:42:26;;;;;;;1.77;1.30;;;10.50;99.90;;;;;;5073280;28;20201;-77
2022/07/16 00:44:58;;;;;;;1.83;1.20;;;10.60;99.90;;;;;;5064372;28;20190;-74
2022/07/16 00:47:29;;;;;;;2.05;1.30;;;10.70;99.90;;;;;;5047767;28;20199;-76
2022/07/16 00:49:59;;;;;;;3.00;1.50;;;10.80;99.90;;;;;;5052880;28;20193;-76
2022/07/16 00:52:30;;;;;;;2.33;1.40;;;10.90;99.90;;;;;;5045100;28;20649;-76
2022/07/16 00:55:01;;;;;;;4.00;1.55;;;11.00;99.90;;;;;;5033093;28;20632;-76
2022/07/16 00:57:32;;;;;;;3.13;1.33;;;11.20;99.90;;;;;;5033194;28;20622;-76
2022/07/16 01:00:04;;;;;;;1.95;1.50;;;11.20;99.90;;;;;;5033831;28;20190;-76
2022/07/16 01:02:38;;;;;;;3.70;1.40;;;11.30;99.90;;;;;;5052779;28;20247;-76
2022/07/16 01:05:09;;;;;;;3.45;1.20;;;11.30;99.90;;;;;;5049126;28;20186;-76
2022/07/16 01:07:40;;;;;;;30.98;17.88;;;11.30;99.90;;;;;;5052945;28;20193;-77
2022/07/16 01:10:11;;;;;;;64.03;33.30;;;11.30;99.90;;;;;;5053181;28;20193;-76
2022/07/16 01:12:43;;;;;;;102.63;51.33;;;11.30;99.90;;;;;;5052888;28;20217;-75
2022/07/16 01:15:16;;;;;;;26.48;14.63;;;11.20;99.90;;;;;;5053083;28;20204;-76
2022/07/16 01:17:47;;;;;;;44.80;24.67;;;11.20;99.90;;;;;;5052258;28;20677;-76
2022/07/16 01:20:17;;;;;;;18.95;10.82;;;11.10;99.90;;;;;;5052478;28;20182;-75
2022/07/16 01:22:49;;;;;;;12.57;6.47;;;11.20;99.90;;;;;;5052716;28;20659;-75
2022/07/16 01:25:22;;;;;;;9.68;4.65;;;11.20;99.90;;;;;;5052017;28;20190;-76
2022/07/16 01:27:53;;;;;;;5.25;3.03;;;11.20;99.90;;;;;;5052418;28;20190;-76
2022/07/16 01:30:23;;;;;;;3.47;1.98;;;11.30;99.90;;;;;;5051337;28;20193;-76
2022/07/16 01:32:54;;;;;;;2.33;1.70;;;11.30;99.90;;;;;;5032657;28;20190;-77
2022/07/16 01:35:25;;;;;;;2.63;1.55;;;11.30;99.90;;;;;;5032648;28;20240;-75
2022/07/16 01:37:57;;;;;;;4.95;2.38;;;11.40;99.90;;;;;;5032644;28;20190;-76
2022/07/16 01:40:29;;;;;;;3.35;1.65;;;11.30;99.90;;;;;;5032780;28;20197;-76
2022/07/16 01:43:00;;;;;;;4.50;1.70;;;11.40;99.90;;;;;;5032695;28;20290;-77
2022/07/16 01:45:31;;;;;;;2.88;1.50;;;11.30;99.90;;;;;;5032745;28;20232;-76
2022/07/16 01:48:02;;;;;;;2.75;1.67;;;11.40;99.90;;;;;;5037517;28;20193;-75
2022/07/16 01:50:32;;;;;;;2.72;1.50;;;11.40;99.90;;;;;;5052548;28;20193;-76
2022/07/16 01:53:03;;;;;;;2.05;1.33;;;11.60;99.90;;;;;;5045044;28;20212;-77
2022/07/16 01:55:36;;;;;;;1.45;1.33;;;11.70;99.90;;;;;;5049762;28;20209;-77
2022/07/16 01:58:08;;;;;;;3.03;1.58;;;11.80;99.90;;;;;;5052584;28;20641;-76
2022/07/16 02:00:40;;;;;;;2.38;1.70;;;11.80;99.90;;;;;;5052473;28;20200;-75
2022/07/16 02:03:10;;;;;;;3.83;1.77;;;11.80;99.90;;;;;;5031918;28;20641;-75
2022/07/16 02:05:42;;;;;;;2.72;1.95;;;11.90;99.90;;;;;;5032319;28;20558;-75
2022/07/16 02:08:13;;;;;;;5.35;2.28;;;12.00;99.90;;;;;;5032560;28;20191;-75
2022/07/16 02:10:45;;;;;;;4.43;1.85;;;12.00;99.90;;;;;;5031999;28;20202;-76
2022/07/16 02:13:16;;;;;;;6.00;2.53;;;12.10;99.90;;;;;;5031939;28;20191;-76
2022/07/16 02:15:47;;;;;;;5.25;2.47;;;12.20;99.90;;;;;;5054366;28;20189;-77
2022/07/16 02:18:17;;;;;;;4.32;1.98;;;12.30;99.90;;;;;;5066865;28;20229;-77
2022/07/16 02:20:48;;;;;;;2.65;1.70;;;12.30;99.90;;;;;;5065242;28;20667;-76
2022/07/16 02:23:19;;;;;;;2.55;1.80;;;12.20;99.90;;;;;;5071857;28;20189;-76
2022/07/16 02:25:52;;;;;;;3.05;1.88;;;12.20;99.90;;;;;;5071954;28;20189;-77
2022/07/16 02:28:23;;;;;;;2.55;1.70;;;12.30;99.90;;;;;;5072207;28;20640;-76
2022/07/16 02:30:54;;;;;;;3.30;1.90;;;12.30;99.90;;;;;;5057648;28;20205;-76
2022/07/16 02:33:25;;;;;;;5.10;2.00;;;12.40;99.90;;;;;;5058113;28;20202;-76
2022/07/16 02:35:55;;;;;;;3.92;2.35;;;12.50;99.90;;;;;;5050347;28;20740;-76
2022/07/16 02:38:26;;;;;;;5.13;1.85;;;12.50;99.90;;;;;;5053875;28;20193;-76
2022/07/16 02:40:59;;;;;;;5.15;2.03;;;12.50;99.90;;;;;;5075675;28;20196;-76
2022/07/16 02:43:29;;;;;;;6.13;2.33;;;12.50;99.90;;;;;;5058326;28;20194;-76
2022/07/16 02:46:00;;;;;;;5.20;1.80;;;12.50;99.90;;;;;;5055643;28;20190;-77
2022/07/16 02:48:31;;;;;;;3.70;1.90;;;12.50;99.90;;;;;;5055836;28;20192;-77
2022/07/16 02:51:01;;;;;;;2.65;1.90;;;12.60;99.90;;;;;;5055530;28;20200;-76
2022/07/16 02:53:32;;;;;;;3.65;1.80;;;12.60;99.90;;;;;;5055631;28;20201;-76
2022/07/16 02:56:05;;;;;;;2.88;1.90;;;12.70;99.90;;;;;;5064069;28;20186;-76
2022/07/16 02:58:35;;;;;;;2.20;1.67;;;12.70;99.90;;;;;;5035752;28;20195;-77
2022/07/16 03:01:06;;;;;;;3.20;1.70;;;12.80;99.90;;;;;;5035779;28;20212;-76
2022/07/16 03:03:37;;;;;;;4.10;1.90;;;12.80;99.90;;;;;;5035499;28;20273;-75
2022/07/16 03:06:11;;;;;;;2.58;1.75;;;12.80;99.90;;;;;;5036135;28;20195;-76
2022/07/16 03:08:41;;;;;;;2.88;1.83;;;12.90;99.90;;;;;;5042385;28;20204;-76
2022/07/16 03:11:14;;;;;;;2.08;1.38;;;12.90;99.90;;;;;;5053575;28;20197;-77
2022/07/16 03:13:45;;;;;;;2.63;1.48;;;13.00;99.90;;;;;;5051021;28;20240;-76
2022/07/16 03:16:15;;;;;;;3.22;1.33;;;13.10;99.90;;;;;;5053408;28;20186;-77
2022/07/16 03:18:46;;;;;;;1.45;1.10;;;13.20;99.90;;;;;;5041015;28;20210;-77
2022/07/16 03:21:17;;;;;;;3.45;1.45;;;13.30;99.90;;;;;;5046379;28;20186;-76
2022/07/16 03:23:47;;;;;;;1.70;1.25;;;13.50;99.90;;;;;;5039961;28;20214;-76
2022/07/16 03:26:20;;;;;;;2.75;1.50;;;13.80;99.90;;;;;;5048290;28;20193;-77
2022/07/16 03:28:51;;;;;;;2.70;1.98;;;14.00;99.90;;;;;;5054369;28;20644;-76
2022/07/16 03:31:21;;;;;;;5.22;2.30;;;14.10;99.90;;;;;;5054537;28;20189;-77
2022/07/16 03:33:52;;;;;;;1.60;1.20;;;14.20;99.90;;;;;;5052500;28;20229;-76
2022/07/16 03:36:23;;;;;;;2.60;1.40;;;14.20;99.90;;;;;;5048536;28;20186;-76
2022/07/16 03:39:04;;;;;;;1.48;1.17;;;14.20;99.90;;;;;;5054863;28;20240;-77
2022/07/16 03:41:37;;;;;;;1.83;1.25;;;14.30;99.90;;;;;;5073981;28;20288;-76
2022/07/16 03:44:09;;;;;;;4.50;1.35;;;14.40;99.90;;;;;;5071004;28;20582;-77
2022/07/16 03:46:40;;;;;;;2.45;1.15;;;14.60;99.90;;;;;;5053471;28;20197;-77
2022/07/16 03:49:11;;;;;;;2.92;1.20;;;14.70;99.90;;;;;;5054201;28;20190;-76
2022/07/16 03:51:42;;;;;;;3.83;1.15;;;14.80;99.90;;;;;;5044512;28;20214;-76
2022/07/16 03:54:12;;;;;;;3.40;1.35;;;14.90;99.90;;;;;;5035677;28;20194;-76
2022/07/16 03:56:45;;;;;;;2.45;1.40;;;14.90;99.90;;;;;;5050642;28;20190;-76
2022/07/16 03:59:15;;;;;;;2.05;1.27;;;15.00;99.90;;;;;;5049659;28;20594;-76
2022/07/16 04:01:46;;;;;;;4.22;1.70;;;15.00;99.90;;;;;;5034832;28;20195;-75
2022/07/16 04:04:17;;;;;;;2.28;1.40;;;15.00;99.90;;;;;;5053757;28;20193;-76
2022/07/16 04:06:47;;;;;;;1.83;1.20;;;15.00;99.90;;;;;;5051074;28;20189;-75
2022/07/16 04:09:18;;;;;;;3.58;1.30;;;14.90;99.90;;;;;;5048463;28;20641;-76
2022/07/16 04:11:50;;;;;;;3.22;1.40;;;14.90;99.90;;;;;;5068842;28;20299;-75
2022/07/16 04:14:21;;;;;;;1.80;1.10;;;15.00;99.90;;;;;;5074141;28;20193;-75
2022/07/16 04:16:52;;;;;;;3.83;1.10;;;15.10;99.90;;;;;;5055223;28;20186;-75
2022/07/16 04:19:22;;;;;;;1.40;1.20;;;15.10;99.90;;;;;;5050330;28;20213;-75
2022/07/16 04:21:53;;;;;;;3.30;1.30;;;15.10;99.90;;;;;;5053712;28;20190;-75
2022/07/16 04:24:24;;;;;;;1.85;1.50;;;15.10;99.90;;;;;;5053665;28;20200;-75
2022/07/16 04:26:56;;;;;;;3.53;1.05;;;15.10;99.90;;;;;;5053989;28;20189;-75
2022/07/16 04:29:27;;;;;;;2.10;0.98;;;15.10;99.90;;;;;;5053646;28;20925;-76
2022/07/16 04:31:57;;;;;;;2.22;0.93;;;15.20;99.90;;;;;;5052975;28;20225;-76
2022/07/16 04:34:28;;;;;;;2.63;1.20;;;15.30;99.90;;;;;;5052782;28;20229;-75
2022/07/16 04:36:59;;;;;;;2.40;1.48;;;15.40;99.90;;;;;;5053423;28;20201;-75
2022/07/16 04:39:29;;;;;;;2.03;1.15;;;15.30;99.90;;;;;;5053808;28;20201;-75
2022/07/16 04:42:02;;;;;;;3.25;1.17;;;15.30;99.90;;;;;;5053107;28;20564;-75
2022/07/16 04:44:33;;;;;;;1.73;1.17;;;15.20;99.90;;;;;;5053522;28;20193;-75
2022/07/16 04:47:04;;;;;;;2.28;1.38;;;15.10;99.90;;;;;;5053064;28;20193;-76
2022/07/16 04:49:34;;;;;;;5.20;1.88;;;15.00;99.90;;;;;;5053239;28;20671;-75
2022/07/16 04:52:05;;;;;;;2.22;1.20;;;14.90;99.90;;;;;;5052972;28;20209;-76
2022/07/16 04:54:36;;;;;;;2.92;1.10;;;14.90;99.90;;;;;;5053063;28;20198;-75
2022/07/16 04:57:09;;;;;;;1.67;1.10;;;14.90;99.90;;;;;;5052507;28;20186;-76
2022/07/16 04:59:40;;;;;;;2.97;1.33;;;14.80;99.90;;;;;;5052548;28;20216;-75
2022/07/16 05:05:12;;;;;;;3.05;1.15;;;14.70;99.90;;;;;;5003823;28;20195;-75
2022/07/16 05:07:43;;;;;;;1.50;1.10;;;14.70;99.90;;;;;;5010492;28;20183;-75
2022/07/16 05:10:14;;;;;;;3.83;1.30;;;14.70;99.90;;;;;;5030157;28;20190;-75
2022/07/16 05:12:46;;;;;;;3.78;1.33;;;14.60;99.90;;;;;;5052142;28;20218;-75
2022/07/16 05:15:17;;;;;;;1.95;1.13;;;14.50;99.90;;;;;;5051901;28;20182;-76
2022/07/16 05:17:48;;;;;;;2.42;1.02;;;14.50;99.90;;;;;;5049232;28;20186;-75
2022/07/16 05:20:18;;;;;;;3.65;1.25;;;14.40;99.90;;;;;;5052288;28;20192;-75
2022/07/16 05:22:49;;;;;;;6.30;1.13;;;14.30;99.90;;;;;;5049479;28;20212;-76
2022/07/16 05:25:20;;;;;;;1.17;1.00;;;14.20;99.90;;;;;;5052232;28;20564;-75
2022/07/16 05:27:52;;;;;;;3.33;1.55;;;14.20;99.90;;;;;;5050100;28;20204;-75
2022/07/16 05:30:23;;;;;;;2.03;1.23;;;14.20;99.90;;;;;;5048584;28;20553;-75
2022/07/16 05:32:54;;;;;;;1.92;1.05;;;14.10;99.90;;;;;;5051730;28;20311;-76
2022/07/16 05:35:25;;;;;;;1.77;1.20;;;14.10;99.90;;;;;;5049310;28;20229;-75
2022/07/16 05:37:55;;;;;;;1.52;1.00;;;14.00;99.90;;;;;;5052226;28;20190;-75
2022/07/16 05:40:26;;;;;;;3.47;1.40;;;14.00;99.90;;;;;;5052167;28;20196;-75
2022/07/16 05:42:59;;;;;;;1.75;1.13;;;13.90;99.90;;;;;;5051807;28;20193;-76
2022/07/16 05:45:29;;;;;;;3.97;1.70;;;13.90;99.90;;;;;;5052298;28;20189;-75
2022/07/16 05:48:00;;;;;;;2.67;1.30;;;13.80;99.90;;;;;;5051646;28;20186;-75
2022/07/16 05:50:31;;;;;;;2.72;2.13;;;13.80;99.90;;;;;;5051825;28;20193;-75
2022/07/16 05:53:02;;;;;;;3.30;1.55;;;13.80;99.90;;;;;;5051829;28;21510;-75
2022/07/16 05:55:33;;;;;;;2.72;1.73;;;13.60;99.90;;;;;;5047377;28;20224;-76
2022/07/16 05:58:05;;;;;;;2.67;1.63;;;13.60;99.90;;;;;;5051663;28;20280;-75
2022/07/16 06:00:36;;;;;;;2.47;2.05;;;13.50;99.90;;;;;;5051623;28;20186;-75
2022/07/16 06:03:07;;;;;;;9.02;4.90;;;13.50;99.90;;;;;;5051524;28;20193;-75
2022/07/16 06:05:38;;;;;;;12.95;5.40;;;13.40;99.90;;;;;;5051742;28;20190;-76
2022/07/16 06:08:08;;;;;;;5.95;3.50;;;13.30;99.90;;;;;;5051700;28;20633;-75
2022/07/16 06:10:39;;;;;;;4.63;3.25;;;13.30;99.90;;;;;;5055925;28;20201;-75
2022/07/16 06:13:12;;;;;;;5.57;2.97;;;13.20;99.90;;;;;;5055223;28;20213;-75
2022/07/16 06:15:43;;;;;;;4.50;2.20;;;13.20;99.90;;;;;;5055930;28;20556;-74
2022/07/16 06:18:13;;;;;;;3.92;2.17;;;13.10;99.90;;;;;;5053958;28;20214;-75
2022/07/16 06:20:44;;;;;;;3.50;2.03;;;13.10;99.90;;;;;;5053414;28;20190;-75
2022/07/16 06:23:15;;;;;;;4.53;2.20;;;13.10;99.90;;;;;;5047394;28;20186;-75
2022/07/16 06:25:45;;;;;;;4.88;2.15;;;13.00;99.90;;;;;;5055419;28;20636;-76
2022/07/16 06:28:18;;;;;;;4.78;2.30;;;13.00;99.90;;;;;;5054864;28;20186;-75
2022/07/16 06:30:49;;;;;;;3.97;2.45;;;12.90;99.90;;;;;;5048636;28;20185;-76
2022/07/16 06:33:19;;;;;;;4.00;2.10;;;12.90;99.90;;;;;;5062228;28;20219;-75
2022/07/16 06:35:50;;;;;;;3.30;2.20;;;12.90;99.90;;;;;;5049818;28;20189;-75
2022/07/16 06:38:21;;;;;;;4.03;2.10;;;12.80;99.90;;;;;;5069894;28;20204;-75
2022/07/16 06:40:51;;;;;;;4.43;1.90;;;12.80;99.90;;;;;;5051849;28;20186;-75
2022/07/16 06:43:24;;;;;;;5.30;2.08;;;12.80;99.90;;;;;;5051694;28;20629;-75
2022/07/16 06:45:55;;;;;;;4.65;2.53;;;12.70;99.90;;;;;;5053421;28;20189;-75
2022/07/16 06:48:26;;;;;;;4.38;2.53;;;12.70;99.90;;;;;;5052287;28;20200;-75
2022/07/16 06:51:02;;;;;;;4.20;2.38;;;12.60;99.90;;;;;;5054939;28;20286;-75
2022/07/16 06:53:33;;;;;;;4.90;2.70;;;12.60;99.90;;;;;;5048986;28;20217;-76
2022/07/16 06:56:04;;;;;;;3.75;2.58;;;12.70;99.90;;;;;;5054158;28;20202;-75
2022/07/16 06:58:36;;;;;;;5.13;2.65;;;12.50;99.90;;;;;;5054928;28;20228;-75
2022/07/16 07:01:08;;;;;;;4.78;2.80;;;12.50;99.90;;;;;;5054859;28;20194;-76
2022/07/16 07:03:41;;;;;;;4.20;2.90;;;12.40;99.90;;;;;;5054981;28;20649;-75
2022/07/16 07:06:12;;;;;;;3.30;2.53;;;12.30;99.90;;;;;;5053690;28;20190;-75
2022/07/16 07:08:43;;;;;;;5.45;2.95;;;12.40;99.90;;;;;;5054108;28;20202;-75
2022/07/16 07:11:14;;;;;;;5.20;3.40;;;12.30;99.90;;;;;;5053800;28;20221;-76
2022/07/16 07:13:47;;;;;;;4.10;3.05;;;12.30;99.90;;;;;;5053894;28;20213;-77
2022/07/16 07:16:17;;;;;;;8.57;3.95;;;12.30;99.90;;;;;;5054360;28;20190;-76
2022/07/16 07:18:48;;;;;;;9.77;5.28;;;12.20;99.90;;;;;;5051684;28;20213;-76
2022/07/16 07:21:19;;;;;;;128.95;72.75;;;12.20;99.90;;;;;;5054320;28;20190;-76
2022/07/16 07:23:49;;;;;;;13.38;7.70;;;12.20;99.90;;;;;;5050743;28;20193;-77
2022/07/16 07:26:20;;;;;;;9.52;6.40;;;12.20;99.90;;;;;;5057760;28;20189;-75
2022/07/16 07:28:53;;;;;;;33.20;20.33;;;12.20;99.90;;;;;;5047769;28;20654;-76
2022/07/16 07:31:23;;;;;;;23.60;14.68;;;12.20;99.90;;;;;;5047570;28;20189;-75
2022/07/16 07:33:54;;;;;;;12.93;8.13;;;12.20;99.90;;;;;;5052900;28;20696;-76
2022/07/16 07:36:25;;;;;;;13.25;7.68;;;12.20;99.90;;;;;;5050151;28;20186;-76
2022/07/16 07:38:55;;;;;;;10.65;6.15;;;12.10;99.90;;;;;;5051590;28;20193;-76
2022/07/16 07:41:26;;;;;;;10.77;5.30;;;12.10;99.90;;;;;;5047908;28;20282;-76
2022/07/16 07:43:59;;;;;;;8.10;4.40;;;12.00;99.90;;;;;;5049140;28;20672;-76
2022/07/16 07:46:29;;;;;;;7.90;4.80;;;12.00;99.90;;;;;;5054073;28;20196;-76
2022/07/16 07:49:00;;;;;;;8.60;4.63;;;11.90;99.90;;;;;;5047000;28;20198;-76
2022/07/16 07:51:31;;;;;;;7.05;4.50;;;11.90;99.90;;;;;;5053992;28;20190;-76
2022/07/16 07:54:05;;;;;;;10.05;4.65;;;11.90;99.90;;;;;;5053678;28;20217;-76
2022/07/16 07:56:36;;;;;;;6.72;4.20;;;11.80;99.90;;;;;;5052382;28;20190;-76
2022/07/16 07:59:08;;;;;;;6.45;4.60;;;11.80;99.90;;;;;;5051835;28;20985;-76
2022/07/16 08:01:39;;;;;;;10.18;4.65;;;11.80;99.90;;;;;;5049311;28;20204;-76
2022/07/16 08:04:10;;;;;;;8.82;4.90;;;11.70;99.90;;;;;;5053695;28;20198;-77
2022/07/16 08:06:41;;;;;;;9.35;4.97;;;11.70;99.90;;;;;;5053909;28;20331;-76
2022/07/16 08:09:12;;;;;;;7.53;4.85;;;11.70;99.90;;;;;;5053192;28;20652;-76
2022/07/16 08:11:42;;;;;;;11.05;5.13;;;11.70;99.90;;;;;;5053513;28;20189;-76
2022/07/16 08:14:15;;;;;;;10.82;5.75;;;11.70;99.90;;;;;;5052431;28;20228;-76
2022/07/16 08:16:45;;;;;;;11.98;5.75;;;11.60;99.90;;;;;;5053425;28;20196;-76
2022/07/16 08:19:16;;;;;;;11.38;5.50;;;11.60;99.90;;;;;;5052818;28;20224;-76
2022/07/16 08:21:47;;;;;;;8.27;5.38;;;11.50;99.90;;;;;;5052934;28;20556;-76
2022/07/16 08:27:06;;;;;;;9.43;5.57;;;11.50;99.90;;;;;;5053066;28;20270;-76
2022/07/16 08:29:39;;;;;;;8.13;5.40;;;11.50;99.90;;;;;;5052719;28;20276;-76
2022/07/16 08:32:10;;;;;;;11.23;5.65;;;11.50;99.90;;;;;;5055108;28;20236;-77
2022/07/16 08:34:41;;;;;;;11.55;6.07;;;11.50;99.90;;;;;;5053266;28;20595;-76
2022/07/16 08:37:12;;;;;;;14.25;5.65;;;11.40;99.90;;;;;;5053788;28;20222;-76
2022/07/16 08:39:44;;;;;;;9.82;5.57;;;11.40;99.90;;;;;;5053573;28;20213;-77
2022/07/16 08:42:15;;;;;;;11.50;6.28;;;11.40;99.90;;;;;;5052377;28;20225;-77
2022/07/16 08:44:49;;;;;;;14.07;6.32;;;11.40;99.90;;;;;;5053382;28;20686;-76
2022/07/16 08:47:20;;;;;;;14.85;6.30;;;11.30;99.90;;;;;;5043137;28;20209;-76
2022/07/16 08:49:51;;;;;;;10.98;5.85;;;11.30;99.90;;;;;;5033717;28;20621;-76
2022/07/16 08:52:26;;;;;;;12.30;6.30;;;11.30;99.90;;;;;;5033343;28;20194;-76
2022/07/16 08:54:57;;;;;;;11.10;6.63;;;11.30;99.90;;;;;;5033627;28;20221;-76
2022/07/16 08:57:29;;;;;;;11.55;6.53;;;11.30;99.90;;;;;;5033633;28;20198;-76
2022/07/16 09:00:01;;;;;;;13.77;6.90;;;11.20;99.90;;;;;;5047574;28;20551;-76
2022/07/16 09:02:32;;;;;;;13.82;7.13;;;11.20;99.90;;;;;;5038837;28;20201;-76
2022/07/16 09:05:03;;;;;;;13.02;7.43;;;11.20;99.90;;;;;;5053387;28;20201;-76
2022/07/16 09:07:34;;;;;;;13.93;7.60;;;11.20;99.90;;;;;;5044062;28;20242;-76
2022/07/16 09:10:05;;;;;;;13.20;7.10;;;11.20;99.90;;;;;;5036756;28;20193;-76
2022/07/16 09:12:38;;;;;;;14.07;7.95;;;11.20;99.90;;;;;;5044583;28;20189;-76
2022/07/16 09:15:32;;;;;;;13.20;7.90;;;11.20;99.90;;;;;;5042618;28;20221;-76
2022/07/16 09:18:14;;;;;;;15.25;8.82;;;11.20;99.90;;;;;;5052178;28;20209;-76
2022/07/16 09:20:47;;;;;;;16.20;9.07;;;11.10;99.90;;;;;;5049816;28;20528;-77
2022/07/16 09:23:31;;;;;;;15.95;9.98;;;11.10;99.90;;;;;;5047080;28;20190;-76
2022/07/16 09:26:04;;;;;;;18.15;10.50;;;11.10;99.90;;;;;;5033100;28;20190;-76
2022/07/16 09:28:44;;;;;;;18.40;10.25;;;11.10;99.90;;;;;;5051542;28;20649;-76
2022/07/16 09:31:36;;;;;;;17.67;10.50;;;11.10;99.90;;;;;;5052852;28;20190;-76
2022/07/16 09:34:09;;;;;;;15.82;8.65;;;11.10;99.90;;;;;;5052497;28;20602;-76
2022/07/16 09:36:42;;;;;;;15.52;9.23;;;11.00;99.90;;;;;;5052646;28;20281;-77
2022/07/16 09:39:12;;;;;;;14.15;8.82;;;11.10;99.90;;;;;;5039064;28;20190;-77
2022/07/16 09:41:48;;;;;;;12.55;7.80;;;11.10;99.90;;;;;;5032884;28;20199;-77
2022/07/16 09:44:20;;;;;;;14.40;7.03;;;11.10;99.90;;;;;;5032012;28;20193;-77
2022/07/16 09:47:09;;;;;;;11.38;6.00;;;11.10;99.90;;;;;;5032786;28;20692;-76
2022/07/16 09:49:41;;;;;;;11.05;5.90;;;11.20;99.90;;;;;;5032595;28;20202;-77
2022/07/16 09:52:31;;;;;;;9.75;4.40;;;11.30;99.90;;;;;;5032646;28;20198;-77
2022/07/16 09:55:02;;;;;;;6.25;4.15;;;11.30;99.90;;;;;;5038910;28;20229;-77
2022/07/16 09:57:33;;;;;;;5.05;2.85;;;11.40;99.90;;;;;;5040043;28;20190;-78
2022/07/16 10:00:06;;;;;;;3.80;2.22;;;11.60;99.90;;;;;;5050351;28;20190;-77
2022/07/16 10:02:41;;;;;;;2.75;2.00;;;11.70;99.90;;;;;;5032696;28;20598;-77
2022/07/16 10:05:12;;;;;;;1.98;1.42;;;11.80;99.90;;;;;;5032470;28;20546;-77
2022/07/16 10:07:43;;;;;;;1.95;1.25;;;11.90;99.90;;;;;;5033681;28;20594;-77
2022/07/16 10:10:15;;;;;;;6.35;4.57;;;12.00;99.90;;;;;;5032634;28;20174;-77
2022/07/16 10:12:48;;;;;;;5.28;3.90;;;12.20;99.90;;;;;;5032308;28;20189;-77
2022/07/16 10:15:19;;;;;;;2.88;1.20;;;12.40;99.90;;;;;;5032399;28;20209;-77
2022/07/16 10:17:52;;;;;;;4.03;2.85;;;12.40;99.90;;;;;;5036230;28;20211;-77
2022/07/16 10:20:23;;;;;;;1.30;1.10;;;12.50;99.90;;;;;;5052192;28;20193;-76
2022/07/16 10:22:54;;;;;;;1.38;1.08;;;12.50;99.90;;;;;;5051635;28;20189;-77
2022/07/16 10:25:26;;;;;;;1.80;1.42;;;12.50;99.90;;;;;;5042037;28;20193;-77
2022/07/16 10:27:57;;;;;;;4.72;2.50;;;12.60;99.90;;;;;;5032240;28;20879;-76
2022/07/16 10:30:29;;;;;;;1.95;1.40;;;12.60;99.90;;;;;;5032401;28;20193;-77
2022/07/16 10:33:18;;;;;;;1.52;1.20;;;12.60;99.90;;;;;;5031963;28;20182;-76
2022/07/16 10:35:51;;;;;;;2.72;1.50;;;12.70;99.90;;;;;;5049708;28;20282;-77
2022/07/16 10:38:24;;;;;;;2.63;1.42;;;12.70;99.90;;;;;;5032137;28;20194;-77
2022/07/16 10:41:13;;;;;;;2.15;1.35;;;12.80;99.90;;;;;;5032084;28;20178;-77
2022/07/16 10:43:44;;;;;;;2.42;1.20;;;12.80;99.90;;;;;;5032072;28;20285;-76
2022/07/16 10:46:27;;;;;;;2.00;1.20;;;12.70;99.90;;;;;;5032041;28;20657;-77
2022/07/16 10:49:20;;;;;;;1.50;1.00;;;12.80;99.90;;;;;;5031908;28;20648;-77
2022/07/16 10:52:03;;;;;;;3.45;1.08;;;12.70;99.90;;;;;;5032031;28;20217;-77
2022/07/16 10:54:36;;;;;;;1.98;1.08;;;12.70;99.90;;;;;;5032560;28;20234;-77
2022/07/16 10:57:08;;;;;;;1.20;1.02;;;12.70;99.90;;;;;;5036016;28;20683;-77
2022/07/16 10:59:40;;;;;;;1.25;0.90;;;12.70;99.90;;;;;;5054994;28;20554;-78
2022/07/16 11:02:12;;;;;;;1.40;1.10;;;12.80;99.90;;;;;;5055615;28;20189;-77
2022/07/16 11:04:46;;;;;;;1.17;0.98;;;12.80;99.90;;;;;;5054833;28;20181;-76
2022/07/16 11:07:17;;;;;;;2.85;0.90;;;12.80;99.90;;;;;;5035671;28;20190;-78
2022/07/16 11:09:52;;;;;;;1.65;1.08;;;12.90;99.90;;;;;;5035515;28;20183;-77
2022/07/16 11:12:24;;;;;;;1.65;1.23;;;12.80;99.90;;;;;;5035345;28;20197;-77
2022/07/16 11:14:57;;;;;;;2.58;0.90;;;12.80;99.90;;;;;;5035309;28;20213;-77
2022/07/16 11:17:29;;;;;;;2.10;1.13;;;12.80;99.90;;;;;;5044394;28;20194;-77
2022/07/16 11:20:08;;;;;;;1.17;0.80;;;12.80;99.90;;;;;;5051778;28;20197;-78
2022/07/16 11:22:40;;;;;;;0.88;0.88;;;12.80;99.90;;;;;;5055144;28;20204;-78
2022/07/16 11:25:11;;;;;;;1.13;0.80;;;12.80;99.90;;;;;;5055058;28;20543;-77
2022/07/16 11:27:43;;;;;;;0.80;0.70;;;12.80;99.90;;;;;;5055014;28;20195;-77
2022/07/16 11:30:15;;;;;;;1.42;0.90;;;12.70;99.90;;;;;;5054987;28;20228;-78
2022/07/16 11:32:46;;;;;;;1.05;0.80;;;12.70;99.90;;;;;;5053975;28;20280;-80
2022/07/16 11:35:19;;;;;;;1.38;0.90;;;12.60;99.90;;;;;;5045561;28;20218;-77
2022/07/16 11:37:54;;;;;;;1.27;0.90;;;12.60;99.90;;;;;;5035124;28;20660;-78
2022/07/16 11:40:36;;;;;;;0.82;0.75;;;12.60;99.90;;;;;;5035088;28;20186;-78
2022/07/16 11:43:07;;;;;;;0.95;0.80;;;12.50;99.90;;;;;;5035053;28;20193;-78
2022/07/16 11:45:45;;;;;;;1.38;1.00;;;12.50;99.90;;;;;;5034750;28;20197;-78
2022/07/16 11:48:17;;;;;;;1.95;1.10;;;12.50;99.90;;;;;;5034899;28;20273;-78
2022/07/16 11:50:50;;;;;;;1.65;0.90;;;12.50;99.90;;;;;;5034690;28;20188;-77
2022/07/16 11:53:32;;;;;;;2.03;1.00;;;12.50;99.90;;;;;;5051830;28;20188;-77
2022/07/16 11:56:03;;;;;;;1.40;1.10;;;12.40;99.90;;;;;;5042379;28;20202;-77
2022/07/16 11:58:34;;;;;;;1.90;1.05;;;12.30;99.90;;;;;;5034677;28;20188;-78
2022/07/16 12:01:04;;;;;;;1.98;1.20;;;12.20;99.90;;;;;;5048262;28;20547;-77
2022/07/16 12:03:35;;;;;;;1.67;1.00;;;12.00;99.90;;;;;;5054453;28;20648;-76
2022/07/16 12:06:11;;;;;;;1.00;0.85;;;12.00;99.90;;;;;;5053626;28;20185;-77
2022/07/16 12:08:54;;;;;;;1.48;1.02;;;11.80;99.90;;;;;;5054472;28;20553;-77
2022/07/16 12:11:32;;;;;;;2.05;1.00;;;11.80;99.90;;;;;;5035604;28;20194;-77
2022/07/16 12:14:04;;;;;;;2.05;1.00;;;11.70;99.90;;;;;;5035165;28;20681;-77
2022/07/16 12:16:34;;;;;;;1.05;0.93;;;11.70;99.90;;;;;;5034085;28;20186;-78
2022/07/16 12:19:08;;;;;;;1.00;0.85;;;11.70;99.90;;;;;;5048456;28;20193;-77
2022/07/16 12:21:41;;;;;;;1.17;1.00;;;11.70;99.90;;;;;;5050538;28;20236;-77
2022/07/16 12:24:12;;;;;;;1.75;1.00;;;11.70;99.90;;;;;;5041705;28;20590;-77
2022/07/16 12:26:43;;;;;;;0.90;0.90;;;11.70;99.90;;;;;;5053911;28;20203;-77
2022/07/16 12:29:15;;;;;;;1.00;0.90;;;11.60;99.90;;;;;;5041519;28;20196;-77
2022/07/16 12:31:46;;;;;;;1.35;1.02;;;11.60;99.90;;;;;;5073811;28;20181;-77
2022/07/16 12:34:18;;;;;;;1.38;0.98;;;11.60;99.90;;;;;;5073467;28;20604;-76
2022/07/16 12:36:50;;;;;;;1.13;1.02;;;11.60;99.90;;;;;;5063333;28;20263;-77
2022/07/16 12:39:23;;;;;;;1.80;1.10;;;11.50;99.90;;;;;;5044860;28;20519;-78
2022/07/16 12:41:54;;;;;;;1.25;1.00;;;11.60;99.90;;;;;;5052918;28;20540;-78
2022/07/16 12:44:25;;;;;;;0.95;0.80;;;11.60;99.90;;;;;;5053160;28;20295;-76
2022/07/16 12:46:56;;;;;;;1.08;0.85;;;11.60;99.90;;;;;;5053441;28;20190;-77
2022/07/16 12:49:28;;;;;;;0.75;0.75;;;11.50;99.90;;;;;;5050167;28;20197;-76
2022/07/16 12:52:02;;;;;;;1.27;0.90;;;11.50;99.90;;;;;;5049898;28;20440;-76
2022/07/16 13:00:02;;;;;;;6.20;4.22;;;11.40;99.90;;;;;;5043092;28;20467;-77
2022/07/16 13:02:33;;;;;;;16.20;10.52;;;11.40;99.90;;;;;;5052099;28;20194;-77
2022/07/16 13:05:04;;;;;;;11.07;6.68;;;11.30;99.90;;;;;;5050036;28;20201;-77
2022/07/16 13:07:36;;;;;;;2.83;1.58;;;11.30;99.90;;;;;;5057157;28;20190;-77
2022/07/16 13:10:07;;;;;;;2.92;1.60;;;11.30;99.90;;;;;;5058346;28;20220;-77
2022/07/16 13:12:38;;;;;;;18.13;10.70;;;11.30;99.90;;;;;;5051745;28;20201;-77
2022/07/16 13:15:09;;;;;;;2.13;1.90;;;11.30;99.90;;;;;;5063214;28;20193;-77
2022/07/16 13:17:41;;;;;;;2.83;1.35;;;11.30;99.90;;;;;;5046068;28;20220;-77
2022/07/16 13:20:13;;;;;;;2.17;1.50;;;11.30;99.90;;;;;;5045250;28;20189;-78
2022/07/16 13:22:46;;;;;;;1.23;1.00;;;11.20;99.90;;;;;;5048312;28;20217;-78